Time;durP1;ratioP1;P1;durP2;ratioP2;P2;SDS_P1;SDS_P2;PMS_P1;PMS_P2;Temp;Humidity;BMP_temperature;BMP_pressure;BME280_temperature;BME280_humidity;BME280_pressure;Samples;Min_cycle;Max_cycle;Signal;HPM_P1;HPM_P2
2023/12/20 00:01:08;;;;;;;432.35;190.93;;;;;;;5.66;100.00;97846.22;4998956;28;20049;-54
2023/12/20 00:03:33;;;;;;;413.63;191.52;;;;;;;5.68;100.00;97849.72;4998275;28;20034;-55
2023/12/20 00:05:58;;;;;;;420.75;192.55;;;;;;;5.59;100.00;97845.28;5000006;28;20030;-54
2023/12/20 00:08:24;;;;;;;460.23;195.00;;;;;;;5.64;100.00;97843.63;4997813;28;20034;-54
2023/12/20 00:10:49;;;;;;;441.30;194.88;;;;;;;5.72;100.00;97839.44;4997726;28;20485;-54
2023/12/20 00:13:15;;;;;;;454.27;195.68;;;;;;;5.93;100.00;97847.44;4998942;28;20524;-54
2023/12/20 00:15:40;;;;;;;441.90;192.68;;;;;;;5.78;100.00;97846.41;4999690;28;20045;-54
2023/12/20 00:18:05;;;;;;;438.10;193.60;;;;;;;5.75;100.00;97843.78;5004220;28;20038;-51
2023/12/20 00:20:31;;;;;;;401.80;190.85;;;;;;;5.80;100.00;97842.16;4996843;28;20293;-54
2023/12/20 00:22:57;;;;;;;426.13;194.30;;;;;;;5.78;100.00;97840.34;4998402;28;20033;-54
2023/12/20 00:25:23;;;;;;;495.27;198.38;;;;;;;5.75;100.00;97830.88;4999001;28;20109;-54
2023/12/20 00:27:49;;;;;;;421.45;196.30;;;;;;;5.84;100.00;97824.97;4999052;28;20048;-53
2023/12/20 00:30:14;;;;;;;461.05;198.18;;;;;;;5.85;100.00;97825.00;4996772;28;20448;-54
2023/12/20 00:32:46;;;;;;;438.13;197.90;;;;;;;5.87;100.00;97819.84;4999993;28;20030;-53
2023/12/20 00:35:11;;;;;;;435.47;196.43;;;;;;;5.90;100.00;97812.13;4997609;28;20516;-53
2023/12/20 00:37:37;;;;;;;429.50;197.20;;;;;;;6.06;100.00;97815.81;4998925;28;20813;-53
2023/12/20 00:40:02;;;;;;;436.15;198.07;;;;;;;6.10;100.00;97811.56;4998870;28;20022;-53
2023/12/20 00:42:28;;;;;;;440.92;199.43;;;;;;;6.19;100.00;97800.44;4999477;28;20109;-53
2023/12/20 00:44:53;;;;;;;443.67;199.77;;;;;;;6.28;100.00;97808.31;4999671;28;20036;-54
2023/12/20 00:54:30;;;;;;;473.55;204.88;;;;;;;6.41;100.00;97795.50;4999172;28;20053;-53
2023/12/20 00:56:55;;;;;;;425.58;201.20;;;;;;;6.43;100.00;97794.69;4998676;28;20040;-53
2023/12/20 00:59:21;;;;;;;500.92;201.98;;;;;;;6.47;100.00;97793.00;4999284;28;20034;-54
2023/12/20 01:01:46;;;;;;;408.63;197.57;;;;;;;6.40;100.00;97796.38;4997853;28;20203;-54
2023/12/20 01:04:11;;;;;;;456.95;200.57;;;;;;;6.50;100.00;97793.03;5001391;28;20021;-55
2023/12/20 01:06:37;;;;;;;452.83;202.13;;;;;;;6.59;100.00;97785.38;4998584;28;20088;-54
2023/12/20 01:09:02;;;;;;;444.60;201.05;;;;;;;6.51;100.00;97787.00;4997310;28;20219;-54
2023/12/20 01:11:28;;;;;;;451.98;202.50;;;;;;;6.69;100.00;97786.31;4997008;28;20049;-53
2023/12/20 01:13:53;;;;;;;448.00;200.32;;;;;;;6.70;100.00;97790.63;5001002;28;20030;-54
2023/12/20 01:16:18;;;;;;;514.30;204.55;;;;;;;6.72;100.00;97786.34;4998783;28;20060;-54
2023/12/20 01:18:44;;;;;;;409.83;199.35;;;;;;;6.68;100.00;97788.91;4998310;28;20124;-54
2023/12/20 01:21:09;;;;;;;456.63;200.30;;;;;;;6.85;100.00;97791.63;4998114;28;20081;-52
2023/12/20 01:23:34;;;;;;;453.42;198.10;;;;;;;6.77;100.00;97787.25;4999426;28;20112;-52
2023/12/20 01:25:59;;;;;;;435.95;194.52;;;;;;;6.95;100.00;97787.38;4997459;28;20140;-55
2023/12/20 01:28:25;;;;;;;460.45;198.18;;;;;;;6.85;100.00;97789.03;4997044;28;20029;-53
2023/12/20 01:30:51;;;;;;;443.55;193.65;;;;;;;6.84;100.00;97780.44;4996046;28;20049;-55
2023/12/20 01:33:16;;;;;;;468.92;190.10;;;;;;;6.81;100.00;97780.38;4997792;28;20026;-51
2023/12/20 01:35:41;;;;;;;469.35;198.20;;;;;;;6.74;100.00;97783.75;4999446;28;20141;-52
2023/12/20 01:38:06;;;;;;;451.75;202.18;;;;;;;6.78;100.00;97777.78;4998362;28;20136;-53
2023/12/20 01:40:32;;;;;;;442.88;204.57;;;;;;;6.95;100.00;97782.22;4998358;28;20230;-53
2023/12/20 01:43:15;;;;;;;430.48;191.93;;;;;;;6.68;100.00;97778.56;4996290;28;20026;-53
2023/12/20 01:45:41;;;;;;;454.95;198.35;;;;;;;6.77;100.00;97770.88;4999187;28;20478;-54
2023/12/20 01:48:07;;;;;;;430.60;199.25;;;;;;;6.84;100.00;97774.38;4997600;28;20028;-51
2023/12/20 01:50:35;;;;;;;433.58;199.23;;;;;;;6.78;100.00;97767.44;4996012;28;20648;-52
2023/12/20 01:53:02;;;;;;;432.67;198.57;;;;;;;6.81;100.00;97769.16;4998180;28;20052;-54
2023/12/20 01:55:31;;;;;;;514.28;203.30;;;;;;;6.94;100.00;97764.97;4995497;28;20067;-53
2023/12/20 01:57:58;;;;;;;419.15;196.35;;;;;;;6.95;100.00;97761.53;4998082;28;20041;-53
2023/12/20 02:00:26;;;;;;;489.73;199.32;;;;;;;6.74;100.00;97765.66;4994891;28;20038;-54
2023/12/20 02:02:53;;;;;;;476.58;202.98;;;;;;;6.70;100.00;97762.22;4995457;28;20034;-52
2023/12/20 02:05:18;;;;;;;464.40;203.40;;;;;;;6.75;100.00;97764.81;4996038;28;20041;-55
2023/12/20 02:07:44;;;;;;;452.05;203.13;;;;;;;6.90;100.00;97764.06;5001630;28;20091;-53
2023/12/20 02:10:09;;;;;;;459.65;196.15;;;;;;;6.91;100.00;97760.66;4997244;28;20039;-53
2023/12/20 02:12:35;;;;;;;444.83;199.43;;;;;;;6.64;100.00;97763.00;4998344;28;20181;-53
2023/12/20 02:15:01;;;;;;;410.45;201.18;;;;;;;6.79;100.00;97763.13;4999002;28;20057;-53
2023/12/20 02:17:27;;;;;;;515.95;199.77;;;;;;;6.66;100.00;97757.88;4995769;28;20615;-54
2023/12/20 02:19:52;;;;;;;422.02;195.32;;;;;;;6.43;100.00;97761.13;4997324;28;20296;-52
2023/12/20 02:22:18;;;;;;;436.88;189.63;;;;;;;6.49;100.00;97757.69;4996181;28;20042;-53
2023/12/20 02:24:43;;;;;;;466.85;190.48;;;;;;;6.36;100.00;97752.44;4997793;28;20026;-53
2023/12/20 02:27:09;;;;;;;402.15;196.80;;;;;;;6.49;100.00;97749.94;4996745;28;20042;-53
2023/12/20 02:29:35;;;;;;;435.40;203.95;;;;;;;6.46;100.00;97748.19;4995212;28;20041;-53
2023/12/20 02:32:01;;;;;;;439.63;204.10;;;;;;;6.61;100.00;97747.47;4997006;28;20045;-52
2023/12/20 02:34:26;;;;;;;505.40;208.88;;;;;;;6.30;100.00;97754.06;4994111;28;20060;-54
2023/12/20 02:36:51;;;;;;;419.45;187.43;;;;;;;6.45;100.00;97758.50;4996236;28;20046;-53
2023/12/20 02:39:19;;;;;;;477.75;195.65;;;;;;;6.32;100.00;97750.69;4996583;28;20449;-53
2023/12/20 02:41:44;;;;;;;427.67;196.52;;;;;;;6.21;100.00;97747.09;4997118;28;20073;-53
2023/12/20 02:44:09;;;;;;;433.52;196.75;;;;;;;6.19;100.00;97744.50;4996898;28;20049;-53
2023/12/20 02:46:35;;;;;;;434.08;197.65;;;;;;;6.22;100.00;97747.13;4994957;28;20836;-53
2023/12/20 02:49:00;;;;;;;398.58;182.77;;;;;;;6.21;100.00;97744.53;4997731;28;20641;-53
2023/12/20 02:51:25;;;;;;;482.23;191.73;;;;;;;6.28;100.00;97748.03;4995044;28;20048;-53
2023/12/20 02:53:51;;;;;;;446.80;193.98;;;;;;;6.14;100.00;97753.94;4996735;28;20028;-53
2023/12/20 02:56:16;;;;;;;440.58;193.95;;;;;;;6.10;100.00;97754.75;4996240;28;20069;-52
2023/12/20 02:58:41;;;;;;;428.95;195.20;;;;;;;6.28;100.00;97748.91;4999923;28;20401;-53
2023/12/20 03:01:07;;;;;;;446.80;196.73;;;;;;;6.44;100.00;97759.38;4996063;28;20441;-53
2023/12/20 03:03:32;;;;;;;484.13;201.15;;;;;;;6.58;100.00;97755.22;4995559;28;20034;-52
2023/12/20 03:05:58;;;;;;;435.10;200.65;;;;;;;6.69;100.00;97762.19;4997850;28;20468;-52
2023/12/20 03:08:23;;;;;;;518.45;203.45;;;;;;;6.68;100.00;97761.31;4994806;28;20056;-53
2023/12/20 03:10:48;;;;;;;409.20;197.57;;;;;;;6.79;100.00;97758.81;4995739;28;20037;-54
2023/12/20 03:13:14;;;;;;;471.65;203.23;;;;;;;6.64;100.00;97757.84;4996105;28;20049;-53
2023/12/20 03:15:39;;;;;;;463.42;202.75;;;;;;;6.45;100.00;97758.50;4994650;28;20121;-54
2023/12/20 03:18:05;;;;;;;443.50;204.55;;;;;;;6.67;100.00;97748.38;4998322;28;20069;-53
2023/12/20 03:20:33;;;;;;;453.38;203.00;;;;;;;6.57;100.00;97740.53;4995664;28;20041;-54
2023/12/20 03:22:59;;;;;;;451.30;204.65;;;;;;;6.37;100.00;97749.00;4995865;28;20072;-54
2023/12/20 03:25:24;;;;;;;513.30;207.63;;;;;;;6.28;100.00;97750.63;4994428;28;20247;-53
2023/12/20 03:27:50;;;;;;;453.90;201.32;;;;;;;6.33;100.00;97746.34;4995868;28;20022;-53
2023/12/20 03:30:15;;;;;;;463.27;208.15;;;;;;;6.43;100.00;97757.66;4995913;28;20113;-53
2023/12/20 03:32:40;;;;;;;444.27;206.75;;;;;;;6.43;100.00;97762.81;4996156;28;20029;-52
2023/12/20 03:35:06;;;;;;;458.95;206.75;;;;;;;5.97;100.00;97761.44;4995491;28;20453;-52
2023/12/20 03:37:31;;;;;;;516.88;209.27;;;;;;;5.97;100.00;97764.03;4994015;28;20090;-54
2023/12/20 03:39:56;;;;;;;442.67;208.00;;;;;;;5.97;100.00;97764.03;4994209;28;20041;-54
2023/12/20 03:42:22;;;;;;;503.75;212.77;;;;;;;6.14;100.00;97763.38;4993016;28;20528;-52
2023/12/20 03:44:47;;;;;;;463.90;210.88;;;;;;;6.04;100.00;97765.88;4995065;28;20037;-54
2023/12/20 03:47:12;;;;;;;437.98;201.20;;;;;;;5.99;100.00;97768.34;4995636;28;20042;-54
2023/12/20 03:49:38;;;;;;;464.60;197.23;;;;;;;5.83;100.00;97763.88;4997085;28;20061;-53
2023/12/20 03:52:04;;;;;;;454.65;200.63;;;;;;;6.02;100.00;97767.53;4996444;28;20049;-53
2023/12/20 03:54:29;;;;;;;506.67;204.27;;;;;;;6.04;100.00;97767.56;4994981;28;20509;-53
2023/12/20 03:56:55;;;;;;;399.48;195.93;;;;;;;6.07;100.00;97765.03;4994532;28;20069;-53
2023/12/20 03:59:20;;;;;;;474.50;199.27;;;;;;;5.89;100.00;97768.22;4996545;28;20033;-53
2023/12/20 04:01:45;;;;;;;437.75;200.07;;;;;;;5.83;100.00;97774.22;4996790;28;20049;-55
2023/12/20 04:04:11;;;;;;;437.38;200.45;;;;;;;5.92;100.00;97769.16;4996148;28;20045;-52
2023/12/20 04:06:37;;;;;;;451.25;203.70;;;;;;;5.90;100.00;97767.41;4994596;28;20117;-53
2023/12/20 04:09:03;;;;;;;430.35;199.90;;;;;;;5.77;100.00;97767.25;4995704;28;20029;-52
2023/12/20 04:11:28;;;;;;;501.75;207.25;;;;;;;5.80;100.00;97771.56;4994266;28;20061;-52
2023/12/20 04:13:54;;;;;;;441.30;206.13;;;;;;;5.67;100.00;97767.97;4997139;28;20104;-53
2023/12/20 04:16:19;;;;;;;478.50;206.77;;;;;;;5.68;100.00;97769.72;4993103;28;20037;-53
2023/12/20 04:18:44;;;;;;;416.42;203.48;;;;;;;6.12;100.00;97771.97;4995216;28;20064;-52
2023/12/20 04:21:10;;;;;;;459.08;205.20;;;;;;;5.93;100.00;97775.16;4991766;28;20309;-52
2023/12/20 04:23:35;;;;;;;475.83;206.38;;;;;;;5.80;100.00;97769.00;4994993;28;20452;-52
2023/12/20 04:26:00;;;;;;;414.77;205.25;;;;;;;5.88;100.00;97769.09;4994445;28;20091;-53
2023/12/20 04:28:26;;;;;;;504.65;212.10;;;;;;;5.84;100.00;97774.22;4995804;28;20429;-52
2023/12/20 04:30:51;;;;;;;434.55;209.40;;;;;;;5.84;100.00;97766.47;4994175;28;20128;-53
2023/12/20 04:33:16;;;;;;;441.00;210.55;;;;;;;6.02;100.00;97767.53;4994586;28;20038;-53
2023/12/20 04:35:42;;;;;;;443.55;210.05;;;;;;;6.04;100.00;97763.28;4994831;28;20042;-53
2023/12/20 04:38:08;;;;;;;449.95;211.88;;;;;;;5.99;100.00;97768.34;4995977;28;20037;-54
2023/12/20 04:40:34;;;;;;;483.20;198.55;;;;;;;5.89;100.00;97761.38;4996334;28;20553;-53
2023/12/20 04:42:59;;;;;;;444.00;197.85;;;;;;;5.97;100.00;97764.91;4997816;28;20109;-54
2023/12/20 04:45:24;;;;;;;446.20;199.75;;;;;;;5.55;100.00;97766.97;4996528;28;20092;-54
2023/12/20 04:47:51;;;;;;;420.55;200.27;;;;;;;5.80;100.00;97761.25;4998090;28;20029;-53
2023/12/20 04:50:16;;;;;;;484.95;207.48;;;;;;;5.91;100.00;97772.59;4995850;28;20021;-55
2023/12/20 04:52:42;;;;;;;446.23;207.77;;;;;;;5.96;100.00;97777.78;4995795;28;20389;-52
2023/12/20 04:55:08;;;;;;;418.88;204.68;;;;;;;5.81;100.00;97773.31;4997825;28;20022;-52
2023/12/20 04:57:34;;;;;;;538.10;208.93;;;;;;;5.76;100.00;97770.69;4994371;28;20430;-52
2023/12/20 05:00:00;;;;;;;401.30;205.68;;;;;;;5.81;100.00;97768.13;4997289;28;20486;-53
2023/12/20 05:02:25;;;;;;;450.13;209.82;;;;;;;5.82;100.00;97777.63;4995493;28;20169;-54
2023/12/20 05:04:50;;;;;;;465.88;210.63;;;;;;;5.63;100.00;97776.50;4997341;28;20326;-53
2023/12/20 05:07:16;;;;;;;433.83;212.02;;;;;;;5.64;100.00;97786.00;4996139;28;20045;-54
2023/12/20 05:09:41;;;;;;;461.10;207.70;;;;;;;5.78;100.00;97789.63;4998021;28;20054;-53
2023/12/20 05:12:07;;;;;;;463.40;206.65;;;;;;;5.82;100.00;97783.66;4998510;28;20069;-54
2023/12/20 05:14:32;;;;;;;476.75;208.45;;;;;;;5.63;100.00;97786.84;4997029;28;20302;-54
2023/12/20 05:16:58;;;;;;;412.27;200.90;;;;;;;5.74;100.00;97790.44;4996558;28;20040;-53
2023/12/20 05:19:24;;;;;;;451.75;206.55;;;;;;;5.44;100.00;97797.78;4999527;28;20065;-54
2023/12/20 05:21:49;;;;;;;420.33;199.77;;;;;;;5.59;100.00;97798.84;4999217;28;20494;-54
2023/12/20 05:24:14;;;;;;;446.58;206.02;;;;;;;5.82;100.00;97811.16;4998635;28;20061;-53
2023/12/20 05:26:40;;;;;;;521.65;212.65;;;;;;;5.75;100.00;97805.06;4995999;28;20395;-53
2023/12/20 05:29:05;;;;;;;457.20;200.35;;;;;;;5.81;100.00;97804.28;4999344;28;20040;-53
2023/12/20 05:31:31;;;;;;;494.08;211.32;;;;;;;5.84;100.00;97804.31;4999425;28;20121;-54
2023/12/20 05:33:56;;;;;;;474.23;210.43;;;;;;;5.71;100.00;97821.34;4998804;28;20041;-52
2023/12/20 05:36:22;;;;;;;497.67;212.25;;;;;;;5.77;100.00;97823.16;4995770;28;20065;-53
2023/12/20 05:38:47;;;;;;;446.30;212.85;;;;;;;5.74;100.00;97826.56;4997927;28;20117;-54
2023/12/20 05:41:13;;;;;;;487.73;214.60;;;;;;;5.60;100.00;97832.41;4996060;28;20042;-52
2023/12/20 05:43:39;;;;;;;492.60;216.48;;;;;;;5.66;100.00;97826.47;4996521;28;20234;-54
2023/12/20 05:46:04;;;;;;;401.98;205.55;;;;;;;5.60;100.00;97821.19;4998995;28;20048;-53
2023/12/20 05:48:29;;;;;;;429.77;190.07;;;;;;;5.76;100.00;97835.22;4997160;28;20220;-53
2023/12/20 05:50:55;;;;;;;374.90;192.18;;;;;;;5.73;100.00;97823.09;4997055;28;20424;-53
2023/12/20 05:53:20;;;;;;;426.88;197.15;;;;;;;5.71;100.00;97818.75;4997920;28;20030;-54
2023/12/20 05:55:45;;;;;;;478.60;204.52;;;;;;;5.65;100.00;97834.19;4997471;28;20072;-53
2023/12/20 05:58:11;;;;;;;406.90;200.00;;;;;;;5.44;100.00;97833.03;4997687;28;20030;-54
2023/12/20 06:00:36;;;;;;;456.55;206.38;;;;;;;5.56;100.00;97840.06;4995255;28;20049;-53
2023/12/20 06:03:01;;;;;;;457.45;201.45;;;;;;;5.73;100.00;97833.41;4996618;28;20472;-52
2023/12/20 06:05:27;;;;;;;450.83;203.05;;;;;;;5.63;100.00;97830.69;4996141;28;20542;-54
2023/12/20 06:07:52;;;;;;;401.45;204.23;;;;;;;5.56;100.00;97837.47;4997298;28;20439;-52
2023/12/20 06:10:18;;;;;;;496.83;209.85;;;;;;;5.55;100.00;97833.19;4997451;28;20136;-52
2023/12/20 06:12:43;;;;;;;519.97;209.63;;;;;;;5.60;100.00;97828.94;4993049;28;20588;-52
2023/12/20 06:15:09;;;;;;;434.08;207.68;;;;;;;5.59;100.00;97830.69;4996059;28;20531;-53
2023/12/20 06:17:34;;;;;;;537.22;213.80;;;;;;;5.58;100.00;97831.53;4997081;28;20056;-52
2023/12/20 06:20:00;;;;;;;403.00;206.75;;;;;;;5.55;100.00;97833.19;4996308;28;20089;-53
2023/12/20 06:22:26;;;;;;;451.83;209.35;;;;;;;5.69;100.00;97842.00;4994222;28;20545;-53
2023/12/20 06:24:51;;;;;;;460.75;211.38;;;;;;;5.72;100.00;97856.66;4998687;28;20049;-53
2023/12/20 06:27:17;;;;;;;447.75;209.95;;;;;;;5.58;100.00;97862.50;4997449;28;20041;-53
2023/12/20 06:29:44;;;;;;;515.35;214.85;;;;;;;5.73;100.00;97866.13;4996074;28;20061;-54
2023/12/20 06:32:09;;;;;;;469.20;214.18;;;;;;;5.77;100.00;97875.66;4995670;28;20037;-53
2023/12/20 06:34:35;;;;;;;475.67;213.60;;;;;;;5.57;100.00;97872.78;4995586;28;20084;-54
2023/12/20 06:37:00;;;;;;;420.02;209.02;;;;;;;5.42;100.00;97870.84;4996212;28;20036;-54
2023/12/20 06:39:26;;;;;;;486.60;211.52;;;;;;;5.25;100.00;97870.56;4996695;28;20104;-55
2023/12/20 06:41:51;;;;;;;402.52;202.32;;;;;;;5.15;100.00;97872.13;4994051;28;20030;-54
2023/12/20 06:44:16;;;;;;;437.75;207.70;;;;;;;5.02;100.00;97874.50;4996308;28;20072;-55
2023/12/20 06:46:42;;;;;;;559.72;200.75;;;;;;;4.90;100.00;97877.72;4994975;28;20057;-53
2023/12/20 06:49:07;;;;;;;453.90;201.30;;;;;;;5.87;100.00;97879.22;4996833;28;20021;-54
2023/12/20 06:51:33;;;;;;;478.70;192.45;;;;;;;7.57;100.00;97874.94;4995448;28;20134;-53
2023/12/20 06:53:59;;;;;;;430.00;194.73;;;;;;;5.63;100.00;97875.44;4997270;28;20026;-53
2023/12/20 06:56:25;;;;;;;436.50;194.00;;;;;;;5.39;100.00;97879.41;4996022;28;20137;-54
2023/12/20 06:58:50;;;;;;;385.67;196.75;;;;;;;5.34;100.00;97881.91;4995198;28;20296;-55
2023/12/20 07:01:16;;;;;;;464.35;197.73;;;;;;;5.31;100.00;97887.00;4994504;28;20046;-53
2023/12/20 07:03:41;;;;;;;459.77;202.25;;;;;;;5.27;100.00;97886.94;4995056;28;20037;-54
2023/12/20 07:06:07;;;;;;;422.67;199.50;;;;;;;5.33;100.00;97895.63;4994541;28;20156;-55
2023/12/20 07:08:33;;;;;;;487.20;201.85;;;;;;;5.31;100.00;97891.31;4994718;28;20614;-53
2023/12/20 07:10:58;;;;;;;390.98;189.07;;;;;;;5.20;100.00;97911.75;4994205;28;20233;-53
2023/12/20 07:13:24;;;;;;;417.80;193.65;;;;;;;5.36;100.00;97924.88;4994693;28;20105;-55
2023/12/20 07:15:50;;;;;;;419.60;194.13;;;;;;;5.37;100.00;97929.19;4996645;28;20042;-55
2023/12/20 07:18:15;;;;;;;396.85;190.55;;;;;;;5.40;100.00;97924.97;4997303;28;20069;-54
2023/12/20 07:20:43;;;;;;;473.17;198.23;;;;;;;5.43;100.00;97929.31;4995098;28;20134;-54
2023/12/20 07:23:08;;;;;;;441.63;200.73;;;;;;;5.54;100.00;97935.53;4995599;28;20053;-53
2023/12/20 07:25:34;;;;;;;507.05;204.20;;;;;;;5.58;100.00;97941.59;4993004;28;20518;-53
2023/12/20 07:27:59;;;;;;;397.25;187.98;;;;;;;5.62;100.00;97933.06;4995677;28;20112;-55
2023/12/20 07:30:24;;;;;;;426.05;184.00;;;;;;;5.76;100.00;97937.56;4993059;28;20034;-54
2023/12/20 07:32:50;;;;;;;383.95;181.85;;;;;;;5.69;100.00;97945.22;4996151;28;20030;-54
2023/12/20 07:35:16;;;;;;;422.77;179.40;;;;;;;5.54;100.00;97951.00;4995270;28;20042;-55
2023/12/20 07:37:41;;;;;;;527.15;187.75;;;;;;;5.80;100.00;97944.50;4994582;28;20465;-54
2023/12/20 07:40:07;;;;;;;417.70;191.35;;;;;;;5.79;100.00;97948.78;4996596;28;20025;-54
2023/12/20 07:42:32;;;;;;;455.92;193.10;;;;;;;5.69;100.00;97945.22;4995595;28;20613;-53
2023/12/20 07:44:58;;;;;;;438.33;193.93;;;;;;;5.79;100.00;97951.38;4993614;28;20057;-54
2023/12/20 07:47:25;;;;;;;422.70;194.00;;;;;;;5.85;100.00;97948.00;4993272;28;20091;-53
2023/12/20 07:49:51;;;;;;;461.02;195.90;;;;;;;5.93;100.00;97948.13;4993971;28;20430;-53
2023/12/20 07:52:18;;;;;;;406.73;195.27;;;;;;;5.86;100.00;97953.22;4995485;28;20668;-53
2023/12/20 07:54:43;;;;;;;509.50;204.57;;;;;;;6.01;100.00;97956.84;4993576;28;20121;-55
2023/12/20 07:57:10;;;;;;;438.13;197.00;;;;;;;5.85;100.00;97961.81;4994574;28;20109;-54
2023/12/20 07:59:36;;;;;;;549.83;203.52;;;;;;;5.90;100.00;97961.00;4993436;28;20460;-54
2023/12/20 08:02:01;;;;;;;387.63;196.70;;;;;;;6.10;100.00;97956.16;4989343;28;20126;-52
2023/12/20 08:04:27;;;;;;;421.08;199.68;;;;;;;6.04;100.00;97963.78;4997067;28;20066;-54
2023/12/20 08:06:52;;;;;;;371.02;197.35;;;;;;;6.23;100.00;97958.06;4996649;28;20097;-53
2023/12/20 08:09:18;;;;;;;398.88;198.07;;;;;;;6.14;100.00;97955.34;4999703;28;20084;-54
2023/12/20 08:11:45;;;;;;;527.28;203.18;;;;;;;6.18;100.00;97964.88;4998514;28;20034;-54
2023/12/20 08:14:11;;;;;;;385.75;201.75;;;;;;;6.14;100.00;97969.97;5002130;28;20108;-53
2023/12/20 08:16:36;;;;;;;445.60;204.38;;;;;;;6.16;100.00;97968.28;4999979;28;20387;-53
2023/12/20 08:19:01;;;;;;;435.90;202.90;;;;;;;6.10;100.00;97972.53;5002245;28;20033;-55
2023/12/20 08:21:27;;;;;;;348.45;177.25;;;;;;;6.07;100.00;97961.28;5000100;28;20142;-54
2023/12/20 08:23:52;;;;;;;369.98;180.40;;;;;;;6.11;100.00;97963.94;5003593;28;20022;-55
2023/12/20 08:26:24;;;;;;;411.73;187.18;;;;;;;6.17;100.00;97967.44;5003051;28;20045;-53
2023/12/20 08:28:50;;;;;;;366.70;187.60;;;;;;;6.08;100.00;97963.88;5001598;28;20506;-54
2023/12/20 08:31:16;;;;;;;359.08;190.65;;;;;;;6.07;100.00;97969.00;5001322;28;20322;-55
2023/12/20 08:33:46;;;;;;;469.08;198.70;;;;;;;6.18;100.00;97966.59;5001003;28;20045;-55
2023/12/20 08:36:12;;;;;;;326.75;191.75;;;;;;;6.06;100.00;97963.00;5004144;28;20081;-55
2023/12/20 08:38:38;;;;;;;439.80;195.88;;;;;;;6.20;100.00;97965.75;5000334;28;20062;-54
2023/12/20 08:41:05;;;;;;;399.42;196.23;;;;;;;6.29;100.00;97954.69;5001311;28;20062;-55
2023/12/20 08:43:34;;;;;;;369.05;195.23;;;;;;;6.42;100.00;97967.78;5002178;28;20410;-54
2023/12/20 08:45:59;;;;;;;393.00;194.52;;;;;;;6.31;100.00;97959.88;5001981;28;20037;-55
2023/12/20 08:48:25;;;;;;;394.27;195.43;;;;;;;6.59;100.00;97961.09;5002845;28;20020;-55
2023/12/20 08:50:52;;;;;;;496.88;199.57;;;;;;;6.58;100.00;97963.66;4999684;28;20041;-56
2023/12/20 08:53:18;;;;;;;425.10;199.15;;;;;;;6.73;100.00;97953.53;5001886;28;20117;-55
2023/12/20 08:55:43;;;;;;;479.25;185.43;;;;;;;6.82;100.00;97967.38;5001368;28;20375;-55
2023/12/20 08:58:08;;;;;;;378.15;186.25;;;;;;;6.80;100.00;97962.22;5002161;28;20041;-55
2023/12/20 09:00:34;;;;;;;399.70;187.30;;;;;;;6.68;100.00;97965.50;4998369;28;20081;-56
2023/12/20 09:03:01;;;;;;;348.92;175.45;;;;;;;6.89;100.00;97962.31;5001423;28;20439;-54
2023/12/20 09:05:26;;;;;;;364.23;172.05;;;;;;;6.63;100.00;97954.25;4998950;28;20389;-55
2023/12/20 09:07:51;;;;;;;470.63;186.15;;;;;;;6.76;100.00;97950.94;4999676;28;20030;-55
2023/12/20 09:10:21;;;;;;;372.55;187.32;;;;;;;6.85;100.00;97955.38;5001216;28;20017;-54
2023/12/20 09:12:50;;;;;;;501.75;196.02;;;;;;;6.85;100.00;97972.59;5000217;28;20029;-55
2023/12/20 09:15:16;;;;;;;442.88;200.82;;;;;;;6.93;100.00;97972.66;5001688;28;20029;-55
2023/12/20 09:17:41;;;;;;;482.52;197.55;;;;;;;7.25;100.00;97980.78;5000036;28;20033;-54
2023/12/20 09:20:08;;;;;;;385.23;189.98;;;;;;;7.52;100.00;97979.28;5002208;28;20041;-56
2023/12/20 09:22:34;;;;;;;421.13;193.38;;;;;;;7.43;100.00;97979.22;4998263;28;20425;-54
2023/12/20 09:24:59;;;;;;;384.58;191.20;;;;;;;7.06;100.00;97974.56;5002588;28;20022;-55
2023/12/20 09:27:25;;;;;;;394.15;193.00;;;;;;;7.28;100.00;97988.56;5001589;28;20045;-55
2023/12/20 09:29:50;;;;;;;554.20;203.20;;;;;;;7.53;100.00;97973.25;5000467;28;20112;-55
2023/12/20 09:32:15;;;;;;;399.48;189.60;;;;;;;7.52;100.00;97968.06;5000613;28;20049;-55
2023/12/20 09:34:41;;;;;;;508.45;196.20;;;;;;;7.47;100.00;97965.47;4996716;28;20121;-56
2023/12/20 09:37:07;;;;;;;396.83;192.23;;;;;;;7.39;100.00;97962.78;4996782;28;20329;-54
2023/12/20 09:39:33;;;;;;;362.58;190.88;;;;;;;7.49;100.00;97974.09;5000451;28;20133;-55
2023/12/20 09:42:03;;;;;;;379.10;194.38;;;;;;;7.32;100.00;97979.13;4998280;28;20034;-55
2023/12/20 09:44:28;;;;;;;424.27;199.07;;;;;;;7.26;100.00;97974.75;5000060;28;20029;-55
2023/12/20 09:46:55;;;;;;;492.25;199.95;;;;;;;7.55;100.00;97968.09;4997577;28;20045;-55
2023/12/20 09:49:21;;;;;;;413.42;197.18;;;;;;;7.41;100.00;97971.44;4997969;28;20129;-55
2023/12/20 09:51:47;;;;;;;522.70;205.10;;;;;;;7.42;100.00;97980.06;4998094;28;20120;-56
2023/12/20 09:54:21;;;;;;;409.40;199.15;;;;;;;7.29;100.00;97979.09;4999218;28;20148;-54
2023/12/20 09:56:47;;;;;;;555.15;205.27;;;;;;;7.63;100.00;97979.38;4997938;28;20161;-55
2023/12/20 09:59:13;;;;;;;432.55;199.18;;;;;;;7.99;100.00;97973.59;5001125;28;20621;-54
2023/12/20 10:01:40;;;;;;;437.73;202.25;;;;;;;6.21;100.00;97976.97;4997814;28;20084;-55
2023/12/20 10:04:08;;;;;;;407.85;203.20;;;;;;;5.75;100.00;97983.13;4999365;28;20489;-54
2023/12/20 10:06:36;;;;;;;380.85;201.75;;;;;;;5.62;100.00;97979.50;5001321;28;20112;-53
2023/12/20 10:09:01;;;;;;;414.77;207.50;;;;;;;5.28;100.00;97984.09;4997644;28;20078;-55
2023/12/20 10:11:27;;;;;;;421.38;206.40;;;;;;;5.21;100.00;97989.13;4998704;28;20073;-55
2023/12/20 10:14:01;;;;;;;500.70;211.38;;;;;;;5.33;100.00;97977.28;4999562;28;20023;-55
2023/12/20 10:16:27;;;;;;;426.23;206.65;;;;;;;5.13;100.00;97979.53;4998047;28;20041;-55
2023/12/20 10:18:54;;;;;;;480.98;210.43;;;;;;;5.28;100.00;97979.81;4998969;28;20080;-55
2023/12/20 10:21:19;;;;;;;433.13;207.32;;;;;;;5.49;100.00;97980.16;4997033;28;20100;-54
2023/12/20 10:23:45;;;;;;;523.58;210.75;;;;;;;5.39;100.00;97977.41;4997797;28;20497;-55
2023/12/20 10:26:19;;;;;;;387.80;205.77;;;;;;;5.51;100.00;97973.28;4999850;28;20685;-55
2023/12/20 10:28:45;;;;;;;567.35;305.60;;;;;;;5.65;100.00;97968.34;4998418;28;20025;-56
2023/12/20 10:31:11;;;;;;;458.75;208.85;;;;;;;6.24;100.00;97974.44;4998652;28;20081;-55
2023/12/20 10:33:36;;;;;;;382.83;169.23;;;;;;;6.84;100.00;97963.09;4997825;28;20026;-55
2023/12/20 10:36:02;;;;;;;344.70;162.02;;;;;;;6.85;100.00;97957.94;4996969;28;20383;-55
2023/12/20 10:38:30;;;;;;;377.35;161.48;;;;;;;6.98;100.00;97960.66;4997055;28;20026;-57
2023/12/20 10:41:00;;;;;;;450.00;175.30;;;;;;;7.02;100.00;97958.13;4993772;28;20057;-55
2023/12/20 10:43:28;;;;;;;422.45;178.98;;;;;;;7.02;100.00;97962.44;4997705;28;20502;-56
2023/12/20 10:45:54;;;;;;;426.45;177.77;;;;;;;6.91;100.00;97949.41;4998081;28;20037;-54
2023/12/20 10:48:22;;;;;;;422.50;170.30;;;;;;;7.15;100.00;97951.38;4996393;28;20469;-55
2023/12/20 10:50:47;;;;;;;442.48;165.10;;;;;;;7.07;100.00;97947.84;4996917;28;20469;-54
2023/12/20 10:53:14;;;;;;;392.00;160.45;;;;;;;6.85;100.00;97946.72;4997353;28;20038;-53
2023/12/20 10:55:40;;;;;;;403.20;170.88;;;;;;;7.01;100.00;97940.88;4995866;28;20176;-52
2023/12/20 10:58:09;;;;;;;419.75;173.32;;;;;;;7.14;100.00;97944.47;4995276;28;20079;-55
2023/12/20 11:00:44;;;;;;;392.83;172.43;;;;;;;7.37;100.00;97938.63;4997786;28;20133;-54
2023/12/20 11:03:11;;;;;;;423.35;176.63;;;;;;;7.57;100.00;97937.91;4995058;28;20022;-54